createdAt,value
2019-04-10T00:00:56.257Z,17.83
2019-04-10T00:03:32.883Z,20.97
2019-04-10T00:06:00.488Z,16.63
2019-04-10T00:08:32.470Z,19.20
2019-04-10T00:11:04.638Z,11.23
2019-04-10T00:13:36.483Z,12.50
2019-04-10T00:16:09.177Z,17.20
2019-04-10T00:18:40.238Z,22.10
2019-04-10T00:21:11.357Z,23.47
2019-04-10T00:23:42.219Z,24.33
2019-04-10T00:26:13.495Z,23.33
2019-04-10T00:28:45.249Z,22.10
2019-04-10T00:31:15.997Z,22.90
2019-04-10T00:33:47.199Z,13.87
2019-04-10T00:36:18.207Z,15.73
2019-04-10T00:38:49.173Z,8.70
2019-04-10T00:41:22.352Z,10.67
2019-04-10T00:43:53.205Z,13.57
2019-04-10T00:46:24.345Z,9.93
2019-04-10T00:48:54.972Z,16.43
2019-04-10T00:51:25.830Z,14.43
2019-04-10T00:53:57.280Z,18.77
2019-04-10T00:56:28.374Z,15.23
2019-04-10T00:58:59.652Z,10.77
2019-04-10T01:01:31.940Z,13.90
2019-04-10T01:04:02.858Z,19.97
2019-04-10T01:06:33.941Z,11.63
2019-04-10T01:09:08.788Z,12.10
2019-04-10T01:11:40.105Z,16.17
2019-04-10T01:14:11.651Z,15.93
2019-04-10T01:16:43.887Z,20.20
2019-04-10T01:19:16.134Z,16.27
2019-04-10T01:21:46.965Z,15.40
2019-04-10T01:24:17.660Z,18.67
2019-04-10T01:26:48.317Z,16.50
2019-04-10T01:29:19.691Z,14.60
2019-04-10T01:31:51.258Z,12.47
2019-04-10T01:34:22.242Z,17.77
2019-04-10T01:36:54.603Z,15.63
2019-04-10T01:39:30.534Z,16.90
2019-04-10T01:42:01.333Z,19.37
2019-04-10T01:44:33.005Z,12.53
2019-04-10T01:47:04.794Z,16.90
2019-04-10T01:49:35.490Z,11.17
2019-04-10T01:52:06.918Z,14.73
2019-04-10T01:54:37.717Z,13.33
2019-04-10T01:57:10.342Z,16.80
2019-04-10T01:59:42.444Z,10.90
2019-04-10T02:02:16.878Z,10.40
2019-04-10T02:04:48.288Z,11.47
2019-04-10T02:07:20.261Z,12.30
2019-04-10T02:09:51.868Z,11.93
2019-04-10T02:12:23.635Z,11.13
2019-04-10T02:14:54.526Z,13.47
2019-04-10T02:17:25.430Z,14.10
2019-04-10T02:19:58.692Z,11.87
2019-04-10T02:22:30.838Z,16.40
2019-04-10T02:25:03.297Z,14.87
2019-04-10T02:27:34.403Z,15.13
2019-04-10T02:30:10.354Z,18.80
2019-04-10T02:32:43.304Z,13.97
2019-04-10T02:35:17.181Z,18.77
2019-04-10T02:37:49.500Z,20.83
2019-04-10T02:40:19.307Z,17.97
2019-04-10T02:42:51.326Z,17.20
2019-04-10T02:45:23.662Z,14.73
2019-04-10T02:47:56.603Z,12.27
2019-04-10T02:50:29.381Z,10.23
2019-04-10T02:53:01.394Z,15.47
2019-04-10T02:55:33.375Z,16.23
2019-04-10T02:58:05.802Z,11.47
2019-04-10T03:00:37.899Z,12.97
2019-04-10T03:03:09.501Z,17.07
2019-04-10T03:05:42.669Z,12.57
2019-04-10T03:08:15.895Z,8.70
2019-04-10T03:10:53.768Z,9.67
2019-04-10T03:13:21.753Z,8.47
2019-04-10T03:15:53.562Z,10.83
2019-04-10T03:18:25.116Z,7.97
2019-04-10T03:20:56.553Z,18.03
2019-04-10T03:23:27.424Z,12.80
2019-04-10T03:25:59.470Z,14.33
2019-04-10T03:28:31.978Z,10.97
2019-04-10T03:31:05.413Z,10.83
2019-04-10T03:33:55.324Z,14.87
2019-04-10T03:36:27.685Z,13.73
2019-04-10T03:39:01.845Z,9.50
2019-04-10T03:41:31.104Z,5.77
2019-04-10T03:44:02.629Z,12.53
2019-04-10T03:46:33.381Z,6.57
2019-04-10T03:49:05.346Z,13.50
2019-04-10T03:51:36.728Z,5.50
2019-04-10T03:54:07.538Z,9.93
2019-04-10T03:56:38.329Z,13.43
2019-04-10T03:59:09.372Z,9.37
2019-04-10T04:01:40.952Z,8.43
2019-04-10T04:04:11.851Z,16.33
2019-04-10T04:06:42.533Z,10.63
2019-04-10T04:09:15.052Z,17.60
2019-04-10T04:11:46.445Z,14.27
2019-04-10T04:14:17.323Z,13.50
2019-04-10T04:16:49.150Z,13.13
2019-04-10T04:19:20.054Z,13.27
2019-04-10T04:21:50.669Z,14.57
2019-04-10T04:24:24.734Z,11.87
2019-04-10T04:26:55.497Z,15.33
2019-04-10T04:29:26.907Z,14.40
2019-04-10T04:31:59.020Z,11.73
2019-04-10T04:34:29.971Z,14.87
2019-04-10T04:37:00.812Z,16.57
2019-04-10T04:39:32.935Z,15.00
2019-04-10T04:42:05.084Z,20.47
2019-04-10T04:44:37.482Z,15.47
2019-04-10T04:47:09.645Z,12.33
2019-04-10T04:49:40.681Z,16.60
2019-04-10T04:52:14.224Z,21.73
2019-04-10T04:54:45.645Z,13.10
2019-04-10T04:57:17.041Z,19.33
2019-04-10T04:59:48.336Z,16.20
2019-04-10T05:02:19.937Z,11.30
2019-04-10T05:04:51.847Z,14.03
2019-04-10T05:07:22.754Z,14.07
2019-04-10T05:09:54.569Z,4.27
2019-04-10T05:12:25.544Z,13.70
2019-04-10T05:14:56.432Z,12.63
2019-04-10T05:17:27.463Z,6.90
2019-04-10T05:19:58.700Z,13.93
2019-04-10T05:22:30.337Z,9.87
2019-04-10T05:25:01.447Z,4.33
2019-04-10T05:27:33.069Z,6.47
2019-04-10T05:30:06.427Z,10.37
2019-04-10T05:32:37.593Z,10.30
2019-04-10T05:35:10.060Z,9.17
2019-04-10T05:37:41.200Z,9.80
2019-04-10T05:40:12.140Z,6.77
2019-04-10T05:42:43.201Z,7.47
2019-04-10T05:45:14.842Z,8.63
2019-04-10T05:47:46.558Z,12.00
2019-04-10T05:50:17.662Z,8.60
2019-04-10T05:52:48.739Z,6.83
2019-04-10T05:55:20.449Z,7.83
2019-04-10T05:57:55.251Z,9.30
2019-04-10T06:00:27.020Z,8.53
2019-04-10T06:03:00.524Z,6.37
2019-04-10T06:05:32.107Z,5.97
2019-04-10T06:08:03.231Z,6.87
2019-04-10T06:10:34.970Z,6.77
2019-04-10T06:13:06.818Z,9.73
2019-04-10T06:15:39.209Z,3.80
2019-04-10T06:18:12.810Z,5.23
2019-04-10T06:20:45.267Z,4.30
2019-04-10T06:23:17.508Z,6.83
2019-04-10T06:25:50.140Z,11.77
2019-04-10T06:28:25.462Z,6.07
2019-04-10T06:30:58.597Z,8.80
2019-04-10T06:33:29.801Z,6.60
2019-04-10T06:36:00.803Z,6.10
2019-04-10T06:38:32.938Z,25.23
2019-04-10T06:41:06.289Z,11.20
2019-04-10T06:43:37.255Z,8.90
2019-04-10T06:46:08.349Z,8.83
2019-04-10T06:48:40.369Z,7.10
2019-04-10T06:51:12.301Z,5.13
2019-04-10T06:53:43.346Z,7.57
2019-04-10T06:56:14.466Z,7.87
2019-04-10T06:58:45.144Z,10.27
2019-04-10T07:01:16.671Z,5.50
2019-04-10T07:03:56.634Z,9.33
2019-04-10T07:06:36.289Z,8.70
2019-04-10T07:08:57.110Z,12.77
2019-04-10T07:11:30.835Z,7.23
2019-04-10T07:14:01.609Z,4.17
2019-04-10T07:16:34.096Z,7.93
2019-04-10T07:19:08.599Z,7.93
2019-04-10T07:21:38.699Z,5.30
2019-04-10T07:24:12.411Z,6.87
2019-04-10T07:26:46.314Z,4.83
2019-04-10T07:29:18.735Z,10.53
2019-04-10T07:31:52.840Z,5.50
2019-04-10T07:34:27.924Z,5.57
2019-04-10T07:36:58.119Z,9.00
2019-04-10T07:39:32.090Z,8.30
2019-04-10T07:42:04.130Z,6.07
2019-04-10T07:44:35.989Z,6.60
2019-04-10T07:47:08.878Z,7.23
2019-04-10T07:49:40.086Z,3.80
2019-04-10T07:52:10.897Z,6.93
2019-04-10T07:54:44.388Z,5.47
2019-04-10T07:57:14.394Z,7.33
2019-04-10T07:59:45.345Z,5.13
2019-04-10T08:02:16.453Z,6.50
2019-04-10T08:04:47.377Z,4.30
2019-04-10T08:07:28.577Z,6.07
2019-04-10T08:09:51.924Z,7.67
2019-04-10T08:12:23.511Z,6.83
2019-04-10T08:14:56.099Z,5.23
2019-04-10T08:17:28.277Z,4.33
2019-04-10T08:19:59.958Z,6.37
2019-04-10T08:22:32.816Z,5.83
2019-04-10T08:25:10.779Z,7.57
2019-04-10T08:27:41.933Z,7.87
2019-04-10T08:30:15.342Z,6.07
2019-04-10T08:32:54.730Z,11.37
2019-04-10T08:35:20.904Z,3.80
2019-04-10T08:37:53.272Z,10.23
2019-04-10T08:40:24.613Z,5.67
2019-04-10T08:42:55.981Z,4.83
2019-04-10T08:45:38.605Z,4.93
2019-04-10T08:48:01.420Z,7.07
2019-04-10T08:50:32.467Z,5.43
2019-04-10T08:53:04.107Z,7.17
2019-04-10T08:55:36.122Z,10.83
2019-04-10T08:58:08.332Z,7.33
2019-04-10T09:00:40.594Z,3.57
2019-04-10T09:03:11.533Z,3.93
2019-04-10T09:05:42.744Z,4.63
2019-04-10T09:08:13.494Z,6.40
2019-04-10T09:10:44.790Z,5.97
2019-04-10T09:13:16.776Z,7.13
2019-04-10T09:15:47.974Z,5.07
2019-04-10T09:18:21.054Z,5.97
2019-04-10T09:20:51.741Z,6.57
2019-04-10T09:23:32.025Z,8.40
2019-04-10T09:25:57.715Z,5.83
2019-04-10T09:28:28.731Z,7.63
2019-04-10T09:30:59.528Z,5.53
2019-04-10T09:33:32.446Z,6.73
2019-04-10T09:36:05.470Z,6.43
2019-04-10T09:38:36.979Z,7.53
2019-04-10T09:41:09.987Z,4.57
2019-04-10T09:43:42.166Z,5.63
2019-04-10T09:46:16.193Z,8.37
2019-04-10T09:48:49.874Z,7.30
2019-04-10T09:51:22.186Z,7.47
2019-04-10T09:53:54.170Z,4.80
2019-04-10T09:56:27.584Z,21.13
2019-04-10T09:59:02.590Z,4.37
2019-04-10T10:01:34.390Z,9.10
2019-04-10T10:04:06.873Z,4.57
2019-04-10T10:06:39.521Z,10.23
2019-04-10T10:09:11.047Z,9.37
2019-04-10T10:11:42.793Z,8.30
2019-04-10T10:14:16.610Z,8.80
2019-04-10T10:16:48.423Z,7.10
2019-04-10T10:19:19.872Z,7.57
2019-04-10T10:21:52.611Z,9.93
2019-04-10T10:24:25.000Z,4.80
2019-04-10T10:26:57.732Z,6.57
2019-04-10T10:29:30.732Z,11.00
2019-04-10T10:32:02.690Z,31.50
2019-04-10T10:34:34.588Z,6.80
2019-04-10T10:37:08.379Z,6.67
2019-04-10T10:39:41.151Z,9.07
2019-04-10T10:42:13.756Z,4.57
2019-04-10T10:44:45.945Z,6.70
2019-04-10T10:47:17.406Z,10.63
2019-04-10T10:49:48.764Z,8.40
2019-04-10T10:52:19.473Z,4.60
2019-04-10T10:54:51.387Z,5.23
2019-04-10T10:57:22.787Z,6.47
2019-04-10T10:59:54.245Z,6.87
2019-04-10T11:02:25.583Z,8.23
2019-04-10T11:05:02.205Z,10.70
2019-04-10T11:07:35.320Z,9.67
2019-04-10T11:10:08.401Z,10.13
2019-04-10T11:12:42.365Z,5.53
2019-04-10T11:15:16.202Z,7.47
2019-04-10T11:17:49.863Z,8.47
2019-04-10T11:20:21.077Z,6.83
2019-04-10T11:22:51.974Z,5.90
2019-04-10T11:25:23.777Z,6.23
2019-04-10T11:27:56.464Z,7.13
2019-04-10T11:30:28.737Z,7.77
2019-04-10T11:33:02.599Z,6.43
2019-04-10T11:35:34.859Z,10.73
2019-04-10T11:38:05.983Z,7.53
2019-04-10T11:40:39.059Z,8.03
2019-04-10T11:43:12.392Z,9.93
2019-04-10T11:45:51.638Z,58.80
2019-04-10T11:48:19.763Z,9.13
2019-04-10T11:50:59.122Z,21.13
2019-04-10T11:53:27.230Z,6.43
2019-04-10T11:56:00.151Z,7.70
2019-04-10T11:58:31.798Z,7.23
2019-04-10T12:01:08.207Z,7.30
2019-04-10T12:03:37.126Z,11.43
2019-04-10T12:06:11.903Z,8.47
2019-04-10T12:09:08.267Z,11.43
2019-04-10T12:11:18.815Z,6.30
2019-04-10T12:13:48.268Z,7.23
2019-04-10T12:16:21.702Z,6.37
2019-04-10T12:18:53.504Z,6.90
2019-04-10T12:21:24.656Z,26.87
2019-04-10T12:23:58.928Z,8.30
2019-04-10T12:26:33.912Z,6.30
2019-04-10T12:29:05.173Z,10.20
2019-04-10T12:31:37.327Z,12.90
2019-04-10T12:34:08.801Z,13.43
2019-04-10T12:36:40.359Z,7.03
2019-04-10T12:39:12.082Z,9.50
2019-04-10T12:41:44.336Z,8.90
2019-04-10T12:44:16.501Z,9.53
2019-04-10T12:46:47.373Z,10.73
2019-04-10T12:49:19.720Z,6.73
2019-04-10T12:51:52.110Z,8.83
2019-04-10T12:54:23.795Z,8.50
2019-04-10T12:56:56.734Z,7.33
2019-04-10T12:59:28.507Z,9.33
2019-04-10T13:02:00.729Z,89.27
2019-04-10T13:04:34.539Z,7.03
2019-04-10T13:07:07.380Z,36.33
2019-04-10T13:09:40.245Z,8.97
2019-04-10T13:12:11.191Z,5.77
2019-04-10T13:14:43.122Z,12.90
2019-04-10T13:17:14.443Z,6.80
2019-04-10T13:19:45.401Z,8.10
2019-04-10T13:22:16.584Z,10.30
2019-04-10T13:24:50.696Z,5.13
2019-04-10T13:27:23.095Z,7.43
2019-04-10T13:29:54.525Z,13.03
2019-04-10T13:32:28.181Z,7.67
2019-04-10T13:34:59.775Z,5.87
2019-04-10T13:37:31.704Z,6.43
2019-04-10T13:40:03.523Z,6.60
2019-04-10T13:42:35.605Z,8.63
2019-04-10T13:45:11.193Z,6.50
2019-04-10T13:47:44.954Z,10.77
2019-04-10T13:50:16.884Z,9.37
2019-04-10T13:52:54.122Z,6.13
2019-04-10T13:55:26.289Z,7.57
2019-04-10T13:58:00.031Z,34.37
2019-04-10T14:00:33.665Z,6.20
2019-04-10T14:03:07.557Z,13.73
2019-04-10T14:05:41.090Z,10.80
2019-04-10T14:08:12.642Z,12.60
2019-04-10T14:10:44.589Z,6.23
2019-04-10T14:13:16.213Z,9.10
2019-04-10T14:15:48.443Z,10.43
2019-04-10T14:18:21.850Z,12.20
2019-04-10T14:20:53.829Z,7.13
2019-04-10T14:23:28.662Z,7.13
2019-04-10T14:26:04.565Z,4.00
2019-04-10T14:28:37.538Z,8.90
2019-04-10T14:31:12.800Z,6.33
2019-04-10T14:33:47.375Z,8.13
2019-04-10T14:36:21.019Z,9.37
2019-04-10T14:39:07.810Z,5.17
2019-04-10T14:41:29.589Z,6.77
2019-04-10T14:44:01.918Z,6.20
2019-04-10T14:46:34.361Z,6.47
2019-04-10T14:49:05.280Z,8.90
2019-04-10T14:51:36.670Z,7.03
2019-04-10T14:54:11.628Z,7.17
2019-04-10T14:56:43.598Z,6.57
2019-04-10T14:59:15.759Z,33.63
2019-04-10T15:01:48.609Z,15.63
2019-04-10T15:04:22.332Z,21.07
2019-04-10T15:06:55.573Z,11.93
2019-04-10T15:09:27.865Z,9.13
2019-04-10T15:12:02.838Z,9.37
2019-04-10T15:14:35.326Z,8.53
2019-04-10T15:17:08.013Z,8.67
2019-04-10T15:19:41.391Z,8.33
2019-04-10T15:22:13.728Z,9.27
2019-04-10T15:24:46.933Z,9.53
2019-04-10T15:27:19.501Z,7.43
2019-04-10T15:29:50.844Z,5.93
2019-04-10T15:32:22.959Z,8.67
2019-04-10T15:34:55.799Z,10.90
2019-04-10T15:37:27.001Z,18.90
2019-04-10T15:40:13.556Z,10.57
2019-04-10T15:42:34.285Z,8.63
2019-04-10T15:45:07.343Z,10.17
2019-04-10T15:47:48.739Z,13.00
2019-04-10T15:50:12.397Z,8.97
2019-04-10T15:52:43.114Z,8.53
2019-04-10T15:55:15.287Z,29.00
2019-04-10T15:57:53.132Z,9.50
2019-04-10T16:00:19.812Z,8.57
2019-04-10T16:02:53.865Z,8.47
2019-04-10T16:05:25.888Z,11.07
2019-04-10T16:07:58.667Z,10.30
2019-04-10T16:10:34.052Z,15.20
2019-04-10T16:13:24.559Z,15.13
2019-04-10T16:15:56.969Z,9.30
2019-04-10T16:18:30.550Z,8.03
2019-04-10T16:21:02.652Z,9.50
2019-04-10T16:23:35.911Z,12.10
2019-04-10T16:26:08.945Z,8.03
2019-04-10T16:28:39.970Z,12.60
2019-04-10T16:31:10.991Z,7.90
2019-04-10T16:33:41.947Z,16.07
2019-04-10T16:36:13.177Z,20.70
2019-04-10T16:38:44.959Z,11.47
2019-04-10T16:41:17.312Z,11.37
2019-04-10T16:43:50.682Z,9.63
2019-04-10T16:46:21.824Z,8.27
2019-04-10T16:48:53.497Z,10.20
2019-04-10T16:51:24.693Z,9.77
2019-04-10T16:53:55.927Z,10.47
2019-04-10T16:56:26.941Z,20.57
2019-04-10T16:58:58.476Z,8.27
2019-04-10T17:01:29.401Z,12.20
2019-04-10T17:04:00.869Z,9.50
2019-04-10T17:06:32.481Z,10.53
2019-04-10T17:09:04.807Z,5.40
2019-04-10T17:11:37.205Z,10.13
2019-04-10T17:14:08.086Z,15.57
2019-04-10T17:16:39.969Z,26.13
2019-04-10T17:19:11.818Z,17.27
2019-04-10T17:21:42.886Z,14.20
2019-04-10T17:24:15.348Z,19.60
2019-04-10T17:26:46.795Z,11.83
2019-04-10T17:29:17.759Z,12.87
2019-04-10T17:31:48.873Z,11.40
2019-04-10T17:34:20.812Z,11.97
2019-04-10T17:36:52.001Z,9.20
2019-04-10T17:39:23.048Z,8.97
2019-04-10T17:41:53.896Z,9.83
2019-04-10T17:44:25.594Z,9.37
2019-04-10T17:46:57.611Z,9.47
2019-04-10T17:49:29.776Z,10.33
2019-04-10T17:52:03.644Z,14.57
2019-04-10T17:54:34.637Z,8.67
2019-04-10T17:57:06.533Z,10.40
2019-04-10T17:59:38.550Z,9.03
2019-04-10T18:02:11.711Z,10.83
2019-04-10T18:04:44.253Z,9.27
2019-04-10T18:07:16.269Z,15.00
2019-04-10T18:09:50.648Z,5.10
2019-04-10T18:12:21.803Z,11.20
2019-04-10T18:14:52.920Z,11.80
2019-04-10T18:17:24.948Z,11.50
2019-04-10T18:19:56.584Z,9.13
2019-04-10T18:22:28.944Z,56.60
2019-04-10T18:25:01.354Z,17.70
2019-04-10T18:27:33.319Z,11.67
2019-04-10T18:30:06.234Z,11.57
2019-04-10T18:32:38.714Z,16.37
2019-04-10T18:35:14.217Z,14.40
2019-04-10T18:37:48.047Z,9.40
2019-04-10T18:40:21.180Z,16.63
2019-04-10T18:42:55.031Z,8.83
2019-04-10T18:45:27.989Z,15.73
2019-04-10T18:47:59.277Z,14.53
2019-04-10T18:50:32.160Z,11.13
2019-04-10T18:53:08.689Z,12.57
2019-04-10T18:55:40.635Z,13.00
2019-04-10T18:58:15.800Z,12.40
2019-04-10T19:01:05.200Z,17.97
2019-04-10T19:03:56.304Z,16.87
2019-04-10T19:06:25.248Z,16.53
2019-04-10T19:09:06.378Z,19.73
2019-04-10T19:11:35.437Z,22.97
2019-04-10T19:14:07.733Z,22.60
2019-04-10T19:16:41.949Z,17.13
2019-04-10T19:19:12.784Z,28.20
2019-04-10T19:21:44.027Z,30.27
2019-04-10T19:24:15.271Z,28.50
2019-04-10T19:26:47.443Z,30.00
2019-04-10T19:29:21.405Z,28.40
2019-04-10T19:31:54.124Z,29.17
2019-04-10T19:34:27.488Z,37.50
2019-04-10T19:37:01.636Z,52.03
2019-04-10T19:39:34.745Z,81.63
2019-04-10T19:42:09.125Z,122.93
2019-04-10T19:44:43.420Z,100.57
2019-04-10T19:47:17.974Z,91.77
2019-04-10T19:49:51.294Z,75.47
2019-04-10T19:52:22.593Z,84.43
2019-04-10T19:54:55.478Z,110.17
2019-04-10T19:57:29.004Z,116.73
2019-04-10T20:00:06.495Z,81.60
2019-04-10T20:02:40.266Z,80.57
2019-04-10T20:05:15.018Z,68.77
2019-04-10T20:07:47.157Z,70.90
2019-04-10T20:10:19.572Z,59.47
2019-04-10T20:12:55.212Z,68.57
2019-04-10T20:15:28.915Z,62.10
2019-04-10T20:18:08.651Z,64.30
2019-04-10T20:20:39.999Z,37.20
2019-04-10T20:23:12.740Z,27.93
2019-04-10T20:25:46.239Z,31.33
2019-04-10T20:28:17.697Z,28.80
2019-04-10T20:30:52.300Z,28.57
2019-04-10T20:33:25.424Z,25.13
2019-04-10T20:35:58.387Z,26.90
2019-04-10T20:38:32.374Z,28.63
2019-04-10T20:41:04.664Z,29.80
2019-04-10T20:43:37.394Z,37.10
2019-04-10T20:46:11.577Z,42.83
2019-04-10T20:48:42.547Z,31.80
2019-04-10T20:51:14.830Z,33.20
2019-04-10T20:53:48.454Z,35.17
2019-04-10T20:56:20.390Z,37.03
2019-04-10T20:58:53.257Z,38.40
2019-04-10T21:01:24.503Z,44.80
2019-04-10T21:03:56.632Z,42.27
2019-04-10T21:06:29.708Z,48.23
2019-04-10T21:09:03.094Z,48.67
2019-04-10T21:11:58.785Z,48.00
2019-04-10T21:14:17.543Z,50.47
2019-04-10T21:16:49.552Z,39.23
2019-04-10T21:19:20.843Z,64.30
2019-04-10T21:21:51.828Z,60.30
2019-04-10T21:24:23.238Z,64.53
2019-04-10T21:26:54.886Z,53.03
2019-04-10T21:29:46.458Z,45.77
2019-04-10T21:32:26.719Z,52.63
2019-04-10T21:34:58.076Z,44.20
2019-04-10T21:37:30.443Z,41.40
2019-04-10T21:40:02.716Z,41.13
2019-04-10T21:42:33.642Z,42.80
2019-04-10T21:45:07.218Z,28.23
2019-04-10T21:47:38.687Z,35.93
2019-04-10T21:50:11.047Z,51.50
2019-04-10T21:52:42.012Z,47.10
2019-04-10T21:55:14.932Z,49.53
2019-04-10T21:57:47.043Z,50.93
2019-04-10T22:00:20.758Z,42.63
2019-04-10T22:02:54.133Z,36.57
2019-04-10T22:05:25.736Z,41.70
2019-04-10T22:08:03.114Z,45.90
2019-04-10T22:10:36.310Z,50.17
2019-04-10T22:13:09.407Z,52.07
2019-04-10T22:15:41.830Z,43.03
2019-04-10T22:18:12.956Z,47.00
2019-04-10T22:20:43.935Z,41.60
2019-04-10T22:23:16.027Z,51.83
2019-04-10T22:25:47.936Z,53.17
2019-04-10T22:28:19.191Z,53.70
2019-04-10T22:30:50.918Z,45.90
2019-04-10T22:33:22.293Z,47.27
2019-04-10T22:35:53.255Z,44.40
2019-04-10T22:38:25.008Z,37.07
2019-04-10T22:40:56.343Z,35.87
2019-04-10T22:43:28.079Z,49.53
2019-04-10T22:46:00.475Z,49.63
2019-04-10T22:48:32.940Z,42.73
2019-04-10T22:51:03.866Z,39.47
2019-04-10T22:53:35.278Z,38.03
2019-04-10T22:56:06.946Z,41.07
2019-04-10T22:58:39.241Z,42.83
2019-04-10T23:01:11.441Z,46.73
2019-04-10T23:03:43.195Z,40.93
2019-04-10T23:06:15.291Z,35.77
2019-04-10T23:08:47.510Z,37.90
2019-04-10T23:11:30.476Z,35.60
2019-04-10T23:13:51.590Z,38.03
2019-04-10T23:16:22.580Z,32.47
2019-04-10T23:18:53.945Z,36.33
2019-04-10T23:21:25.049Z,27.77
2019-04-10T23:23:56.811Z,50.47
2019-04-10T23:26:29.126Z,45.00
2019-04-10T23:29:00.154Z,51.20
2019-04-10T23:31:32.088Z,37.90
2019-04-10T23:34:04.210Z,30.63
2019-04-10T23:36:35.203Z,36.33
2019-04-10T23:39:08.063Z,33.97
2019-04-10T23:41:38.679Z,25.60
2019-04-10T23:44:09.421Z,34.97
2019-04-10T23:46:40.402Z,41.53
2019-04-10T23:49:11.538Z,37.03
2019-04-10T23:51:43.281Z,34.77
2019-04-10T23:54:15.158Z,32.27
2019-04-10T23:56:49.347Z,34.60
2019-04-10T23:59:20.621Z,31.33
